createdAt,value
2022-11-13T00:02:40.688Z,43.90
2022-11-13T00:05:20.598Z,41.58
2022-11-13T00:08:07.605Z,36.47
2022-11-13T00:10:40.699Z,36.30
2022-11-13T00:13:30.315Z,33.92
2022-11-13T00:16:24.621Z,34.70
2022-11-13T00:19:18.599Z,31.35
2022-11-13T00:22:12.604Z,32.75
2022-11-13T00:25:06.608Z,30.35
2022-11-13T00:27:53.608Z,43.88
2022-11-13T00:30:35.600Z,40.13
2022-11-13T00:33:54.922Z,29.83
2022-11-13T00:36:36.619Z,28.80
2022-11-13T00:39:09.701Z,31.85
2022-11-13T00:41:56.618Z,34.15
2022-11-13T00:44:29.698Z,30.15
2022-11-13T00:47:16.622Z,29.00
2022-11-13T00:49:56.618Z,29.02
2022-11-13T00:52:50.638Z,29.92
2022-11-13T00:55:37.627Z,31.65
2022-11-13T00:58:11.761Z,30.60
2022-11-13T01:00:58.622Z,27.48
2022-11-13T01:03:31.699Z,28.85
2022-11-13T01:06:22.633Z,29.98
2022-11-13T01:08:56.746Z,29.70
2022-11-13T01:11:43.643Z,30.58
2022-11-13T01:14:16.710Z,29.48
2022-11-13T01:17:03.608Z,27.25
2022-11-13T01:19:36.730Z,29.35
2022-11-13T01:22:30.623Z,29.13
2022-11-13T01:25:24.642Z,31.10
2022-11-13T01:28:18.634Z,34.22
2022-11-13T01:31:05.631Z,33.00
2022-11-13T01:33:38.691Z,33.20
2022-11-13T01:36:31.631Z,34.28
2022-11-13T01:39:04.726Z,32.97
2022-11-13T01:41:51.643Z,33.63
2022-11-13T01:44:26.727Z,32.15
2022-11-13T01:47:14.628Z,31.92
2022-11-13T01:49:49.702Z,30.75
2022-11-13T01:52:45.640Z,31.15
2022-11-13T01:55:21.717Z,30.98
2022-11-13T01:58:11.647Z,30.70
2022-11-13T02:00:51.651Z,27.35
2022-11-13T02:03:45.667Z,27.88
2022-11-13T02:06:36.714Z,28.35
2022-11-13T02:09:10.746Z,29.05
2022-11-13T02:11:58.663Z,28.88
2022-11-13T02:14:34.709Z,29.85
2022-11-13T02:17:27.675Z,28.40
2022-11-13T02:20:04.734Z,28.38
2022-11-13T02:23:13.667Z,28.38
2022-11-13T02:26:07.642Z,27.50
2022-11-13T02:29:01.672Z,26.83
2022-11-13T02:31:48.667Z,26.55
2022-11-13T02:34:21.730Z,27.05
2022-11-13T02:37:08.670Z,26.75
2022-11-13T02:39:41.723Z,25.73
2022-11-13T02:42:28.684Z,25.52
2022-11-13T02:45:01.751Z,25.95
2022-11-13T02:47:48.665Z,26.23
2022-11-13T02:50:22.727Z,25.73
2022-11-13T02:53:10.645Z,25.77
2022-11-13T02:55:43.765Z,25.23
2022-11-13T02:58:31.022Z,27.00
2022-11-13T03:01:04.767Z,27.83
2022-11-13T03:03:58.896Z,26.88
2022-11-13T03:06:32.752Z,27.40
2022-11-13T03:09:19.678Z,28.60
2022-11-13T03:11:52.735Z,27.52
2022-11-13T03:14:39.689Z,28.20
2022-11-13T03:17:19.677Z,28.95
2022-11-13T03:20:06.666Z,30.83
2022-11-13T03:22:46.695Z,29.77
2022-11-13T03:25:33.702Z,29.85
2022-11-13T03:28:13.740Z,27.10
2022-11-13T03:31:07.720Z,27.63
2022-11-13T03:34:01.679Z,28.63
2022-11-13T03:36:48.701Z,28.83
2022-11-13T03:39:22.572Z,28.55
2022-11-13T03:42:09.717Z,29.27
2022-11-13T03:44:42.793Z,30.33
2022-11-13T03:47:29.730Z,29.83
2022-11-13T03:50:09.720Z,30.42
2022-11-13T03:52:56.699Z,29.80
2022-11-13T03:55:29.807Z,30.63
2022-11-13T03:58:16.696Z,27.92
2022-11-13T04:00:50.789Z,28.45
2022-11-13T04:03:37.731Z,28.27
2022-11-13T04:06:17.737Z,29.30
2022-11-13T04:09:04.703Z,29.17
2022-11-13T04:11:44.700Z,30.90
2022-11-13T04:14:38.702Z,30.27
2022-11-13T04:17:32.696Z,31.80
2022-11-13T04:20:19.731Z,30.83
2022-11-13T04:22:52.790Z,29.80
2022-11-13T04:25:39.725Z,28.38
2022-11-13T04:28:14.618Z,30.40
2022-11-13T04:31:01.724Z,29.67
2022-11-13T04:33:34.794Z,30.15
2022-11-13T04:36:21.724Z,29.67
2022-11-13T04:38:54.754Z,30.63
2022-11-13T04:41:59.735Z,30.42
2022-11-13T04:44:32.833Z,31.33
2022-11-13T04:47:19.723Z,30.20
2022-11-13T04:49:52.835Z,31.38
2022-11-13T04:52:42.461Z,28.85
2022-11-13T04:55:16.840Z,28.83
2022-11-13T04:58:03.740Z,31.23
2022-11-13T05:00:36.837Z,29.55
2022-11-13T05:03:23.739Z,28.98
2022-11-13T05:05:56.832Z,29.90
2022-11-13T05:08:43.730Z,28.02
2022-11-13T05:11:18.535Z,28.45
2022-11-13T05:14:08.697Z,28.90
2022-11-13T05:16:42.841Z,28.75
2022-11-13T05:19:29.784Z,29.33
2022-11-13T05:22:02.891Z,28.67
2022-11-13T05:24:49.767Z,30.13
2022-11-13T05:27:22.834Z,28.02
2022-11-13T05:30:10.709Z,28.67
2022-11-13T05:32:50.725Z,29.70
2022-11-13T05:35:44.700Z,28.60
2022-11-13T05:38:31.939Z,28.23
2022-11-13T05:41:12.838Z,29.40
2022-11-13T05:44:02.576Z,29.10
2022-11-13T05:46:38.839Z,27.80
2022-11-13T05:49:25.749Z,27.35
2022-11-13T05:52:07.782Z,27.70
2022-11-13T05:55:01.774Z,28.42
2022-11-13T05:57:50.721Z,28.55
2022-11-13T06:00:33.783Z,26.20
2022-11-13T06:03:20.724Z,26.10
2022-11-13T06:06:00.733Z,25.40
2022-11-13T06:08:54.777Z,23.90
2022-11-13T06:11:48.851Z,24.95
2022-11-13T06:14:42.719Z,25.10
2022-11-13T06:17:29.781Z,25.63
2022-11-13T06:20:02.834Z,23.50
2022-11-13T06:22:56.728Z,24.90
2022-11-13T06:25:50.796Z,24.00
2022-11-13T06:28:37.794Z,22.88
2022-11-13T06:31:22.796Z,23.35
2022-11-13T06:34:18.799Z,23.80
2022-11-13T06:37:12.792Z,21.92
2022-11-13T06:40:06.869Z,21.50
2022-11-13T06:42:53.780Z,22.77
2022-11-13T06:45:33.773Z,21.63
2022-11-13T06:48:29.948Z,21.98
2022-11-13T06:51:25.774Z,22.10
2022-11-13T06:53:58.898Z,21.70
2022-11-13T06:56:49.780Z,22.10
2022-11-13T06:59:25.164Z,20.40
2022-11-13T07:02:11.786Z,22.17
2022-11-13T07:04:47.192Z,22.08
2022-11-13T07:07:33.781Z,22.70
2022-11-13T07:10:08.901Z,23.58
2022-11-13T07:12:55.778Z,20.75
2022-11-13T07:15:31.157Z,22.80
2022-11-13T07:18:21.490Z,23.52
2022-11-13T07:20:56.840Z,25.17
2022-11-13T07:23:51.813Z,20.73
2022-11-13T07:26:38.801Z,22.70
2022-11-13T07:29:11.898Z,23.15
2022-11-13T07:31:59.825Z,22.95
2022-11-13T07:34:34.899Z,22.73
2022-11-13T07:37:21.825Z,23.25
2022-11-13T07:39:57.179Z,23.10
2022-11-13T07:42:44.828Z,21.15
2022-11-13T07:45:17.960Z,22.88
2022-11-13T07:48:06.851Z,20.98
2022-11-13T07:50:50.799Z,24.60
2022-11-13T07:53:37.810Z,22.48
2022-11-13T07:56:18.843Z,21.75
2022-11-13T07:59:02.801Z,22.25
2022-11-13T08:01:50.846Z,23.77
2022-11-13T08:04:44.798Z,23.98
2022-11-13T08:07:31.841Z,21.92
2022-11-13T08:10:04.899Z,24.00
2022-11-13T08:12:52.802Z,22.42
2022-11-13T08:15:26.894Z,22.17
2022-11-13T08:18:14.795Z,23.83
2022-11-13T08:20:47.926Z,23.02
2022-11-13T08:23:44.846Z,22.05
2022-11-13T08:26:38.804Z,22.85
2022-11-13T08:29:26.850Z,21.52
2022-11-13T08:32:00.920Z,22.00
2022-11-13T08:34:48.839Z,22.48
2022-11-13T08:37:21.921Z,27.30
2022-11-13T08:40:09.838Z,24.80
2022-11-13T08:42:42.917Z,23.27
2022-11-13T08:45:30.799Z,21.15
2022-11-13T08:48:12.153Z,23.48
2022-11-13T08:51:02.856Z,22.63
2022-11-13T08:53:35.918Z,21.90
2022-11-13T08:56:24.853Z,21.08
2022-11-13T08:58:57.903Z,21.30
2022-11-13T09:01:38.849Z,21.02
2022-11-13T09:04:19.854Z,22.00
2022-11-13T09:06:52.928Z,21.75
2022-11-13T09:09:40.848Z,23.55
2022-11-13T09:12:22.852Z,21.92
2022-11-13T09:15:20.349Z,22.63
2022-11-13T09:18:12.910Z,22.50
2022-11-13T09:20:52.842Z,22.55
2022-11-13T09:23:47.861Z,22.77
2022-11-13T09:26:35.847Z,23.27
2022-11-13T09:29:10.285Z,23.85
2022-11-13T09:31:56.850Z,21.30
2022-11-13T09:34:33.864Z,23.00
2022-11-13T09:37:23.876Z,20.95
2022-11-13T09:39:56.899Z,24.17
2022-11-13T09:42:46.857Z,25.52
2022-11-13T09:45:30.897Z,21.77
2022-11-13T09:48:41.842Z,22.23
2022-11-13T09:51:37.839Z,20.85
2022-11-13T09:54:20.257Z,22.40
2022-11-13T09:57:25.812Z,21.80
2022-11-13T10:00:05.991Z,22.25
2022-11-13T10:03:07.230Z,23.27
2022-11-13T10:05:59.218Z,23.25
2022-11-13T10:09:04.849Z,22.73
2022-11-13T10:11:55.150Z,21.17
2022-11-13T10:14:56.852Z,23.38
2022-11-13T10:17:49.843Z,21.38
2022-11-13T10:20:39.146Z,22.00
2022-11-13T10:23:34.856Z,22.92
2022-11-13T10:26:36.922Z,22.25
2022-11-13T10:29:26.892Z,23.55
2022-11-13T10:32:07.848Z,24.88
2022-11-13T10:35:12.847Z,23.85
2022-11-13T10:37:58.744Z,25.67
2022-11-13T10:40:47.845Z,24.00
2022-11-13T10:43:32.275Z,25.42
2022-11-13T10:46:30.904Z,23.17
2022-11-13T10:49:04.926Z,25.38
2022-11-13T10:51:51.852Z,22.88
2022-11-13T10:54:33.965Z,23.05
2022-11-13T10:57:36.900Z,22.10
2022-11-13T11:00:27.964Z,23.85
2022-11-13T11:03:25.901Z,23.77
2022-11-13T11:06:06.971Z,24.98
2022-11-13T11:08:53.834Z,23.25
2022-11-13T11:11:51.877Z,24.45
2022-11-13T11:14:51.856Z,23.73
2022-11-13T11:18:00.909Z,23.83
2022-11-13T11:20:55.892Z,25.90
2022-11-13T11:23:39.941Z,25.58
2022-11-13T11:26:28.899Z,25.60
2022-11-13T11:29:25.956Z,22.73
2022-11-13T11:32:51.891Z,22.95
2022-11-13T11:35:30.920Z,24.08
2022-11-13T11:38:31.137Z,26.38
2022-11-13T11:41:33.848Z,29.85
2022-11-13T11:44:41.893Z,27.33
2022-11-13T11:47:35.879Z,23.60
2022-11-13T11:50:29.878Z,24.70
2022-11-13T11:53:18.016Z,24.77
2022-11-13T11:56:12.910Z,22.45
2022-11-13T11:59:18.944Z,23.10
2022-11-13T12:02:22.897Z,23.75
2022-11-13T12:05:23.987Z,23.75
2022-11-13T12:08:32.912Z,24.60
2022-11-13T12:11:29.980Z,26.42
2022-11-13T12:14:29.876Z,25.80
2022-11-13T12:17:17.788Z,23.17
2022-11-13T12:20:24.906Z,23.80
2022-11-13T12:23:18.971Z,25.75
2022-11-13T12:26:23.876Z,26.10
2022-11-13T12:29:06.012Z,24.23
2022-11-13T12:32:14.892Z,24.10
2022-11-13T12:34:58.904Z,23.05
2022-11-13T12:38:04.886Z,25.80
2022-11-13T12:41:06.914Z,20.13
2022-11-13T12:44:24.001Z,22.08
2022-11-13T12:47:17.901Z,21.88
2022-11-13T12:50:06.900Z,20.15
2022-11-13T12:52:39.970Z,20.88
2022-11-13T12:55:35.928Z,21.30
2022-11-13T12:58:28.526Z,20.58
2022-11-13T13:01:18.986Z,20.08
2022-11-13T13:04:06.971Z,20.33
2022-11-13T13:06:57.009Z,29.05
2022-11-13T13:09:35.972Z,26.27
2022-11-13T13:12:26.906Z,23.48
2022-11-13T13:15:03.082Z,21.05
2022-11-13T13:17:49.925Z,19.60
2022-11-13T13:20:23.025Z,20.13
2022-11-13T13:23:09.924Z,23.63
2022-11-13T13:25:50.928Z,23.00
2022-11-13T13:28:45.957Z,23.65
2022-11-13T13:31:52.910Z,24.27
2022-11-13T13:35:12.927Z,21.08
2022-11-13T13:38:22.004Z,23.75
2022-11-13T13:41:27.934Z,22.63
2022-11-13T13:44:06.024Z,27.00
2022-11-13T13:46:52.945Z,25.90
2022-11-13T13:49:29.020Z,22.55
2022-11-13T13:52:20.905Z,19.65
2022-11-13T13:55:01.929Z,20.23
2022-11-13T13:57:48.927Z,20.85
2022-11-13T14:00:31.950Z,21.35
2022-11-13T14:03:35.923Z,19.35
2022-11-13T14:06:28.932Z,20.73
2022-11-13T14:09:08.929Z,21.33
2022-11-13T14:12:09.822Z,19.30
2022-11-13T14:14:52.930Z,22.10
2022-11-13T14:17:46.946Z,20.13
2022-11-13T14:20:33.940Z,20.08
2022-11-13T14:23:07.984Z,19.52
2022-11-13T14:26:02.954Z,19.48
2022-11-13T14:29:07.937Z,27.50
2022-11-13T14:31:48.986Z,25.75
2022-11-13T14:34:37.950Z,22.70
2022-11-13T14:37:21.008Z,20.02
2022-11-13T14:40:10.954Z,19.23
2022-11-13T14:42:51.019Z,26.15
2022-11-13T14:45:38.968Z,28.02
2022-11-13T14:48:36.031Z,25.67
2022-11-13T14:51:37.961Z,22.73
2022-11-13T14:54:19.962Z,20.70
2022-11-13T14:57:17.950Z,19.33
2022-11-13T14:59:57.958Z,19.10
2022-11-13T15:02:51.958Z,20.90
2022-11-13T15:05:45.952Z,20.88
2022-11-13T15:08:39.948Z,20.27
2022-11-13T15:11:29.982Z,21.42
2022-11-13T15:14:09.946Z,23.17
2022-11-13T15:17:05.941Z,24.33
2022-11-13T15:19:58.951Z,23.40
2022-11-13T15:22:32.238Z,24.38
2022-11-13T15:25:23.978Z,23.02
2022-11-13T15:28:03.970Z,23.85
2022-11-13T15:30:50.978Z,23.10
2022-11-13T15:33:24.047Z,24.52
2022-11-13T15:36:10.967Z,24.67
2022-11-13T15:38:50.971Z,23.13
2022-11-13T15:41:44.979Z,25.38
2022-11-13T15:44:31.992Z,28.52
2022-11-13T15:47:05.049Z,28.80
2022-11-13T15:50:10.180Z,25.95
2022-11-13T15:52:48.035Z,26.92
2022-11-13T15:55:36.973Z,31.95
2022-11-13T15:58:10.047Z,32.22
2022-11-13T16:00:56.989Z,40.40
2022-11-13T16:03:32.101Z,48.25
2022-11-13T16:06:21.993Z,48.17
2022-11-13T16:09:02.974Z,48.97
2022-11-13T16:11:49.985Z,43.83
2022-11-13T16:14:29.980Z,42.65
2022-11-13T16:17:28.994Z,38.28
2022-11-13T16:20:25.996Z,36.17
2022-11-13T16:23:12.993Z,33.42
2022-11-13T16:25:46.065Z,31.90
2022-11-13T16:28:41.978Z,35.35
2022-11-13T16:31:30.116Z,33.08
2022-11-13T16:34:16.991Z,35.95
2022-11-13T16:36:50.075Z,35.63
2022-11-13T16:39:36.994Z,33.53
2022-11-13T16:42:17.010Z,32.75
2022-11-13T16:45:10.985Z,30.40
2022-11-13T16:47:57.987Z,32.75
2022-11-13T16:50:39.522Z,35.85
2022-11-13T16:53:26.135Z,36.13
2022-11-13T16:56:06.009Z,37.47
2022-11-13T16:58:53.013Z,31.13
2022-11-13T17:01:27.201Z,34.70
2022-11-13T17:04:14.045Z,35.97
2022-11-13T17:06:56.819Z,46.78
2022-11-13T17:10:10.127Z,43.33
2022-11-13T17:12:53.034Z,43.60
2022-11-13T17:15:47.036Z,46.10
2022-11-13T17:18:34.001Z,47.28
2022-11-13T17:21:07.096Z,42.25
2022-11-13T17:24:01.021Z,42.03
2022-11-13T17:26:54.999Z,39.63
2022-11-13T17:29:41.999Z,40.65
2022-11-13T17:32:22.010Z,41.47
2022-11-13T17:35:16.045Z,45.38
2022-11-13T17:38:03.000Z,43.78
2022-11-13T17:40:43.037Z,44.40
2022-11-13T17:43:30.330Z,42.35
2022-11-13T17:46:04.088Z,42.22
2022-11-13T17:48:51.041Z,41.65
2022-11-13T17:51:24.100Z,39.20
2022-11-13T17:54:11.050Z,36.88
2022-11-13T17:56:51.006Z,40.35
2022-11-13T17:59:38.015Z,39.10
2022-11-13T18:02:11.152Z,41.05
2022-11-13T18:04:58.016Z,44.42
2022-11-13T18:07:38.024Z,51.00
2022-11-13T18:10:32.027Z,45.72
2022-11-13T18:13:19.050Z,46.50
2022-11-13T18:15:52.090Z,45.42
2022-11-13T18:18:39.014Z,41.72
2022-11-13T18:21:40.698Z,43.80
2022-11-13T18:24:35.123Z,42.63
2022-11-13T18:27:22.045Z,46.38
2022-11-13T18:29:55.106Z,51.33
2022-11-13T18:32:42.054Z,50.13
2022-11-13T18:35:15.108Z,55.17
2022-11-13T18:38:03.046Z,57.65
2022-11-13T18:40:43.035Z,55.95
2022-11-13T18:43:37.028Z,56.47
2022-11-13T18:46:34.053Z,52.50
2022-11-13T18:49:28.048Z,50.72
2022-11-13T18:52:22.058Z,48.03
2022-11-13T18:55:09.055Z,52.15
2022-11-13T18:57:42.109Z,45.85
2022-11-13T19:00:29.057Z,42.83
2022-11-13T19:03:09.075Z,42.30
2022-11-13T19:06:04.094Z,44.60
2022-11-13T19:08:51.046Z,41.47
2022-11-13T19:11:25.125Z,37.88
2022-11-13T19:14:12.044Z,42.83
2022-11-13T19:16:53.045Z,39.38
2022-11-13T19:19:49.076Z,33.10
2022-11-13T19:22:36.054Z,29.33
2022-11-13T19:25:09.219Z,29.55
2022-11-13T19:27:56.056Z,31.80
2022-11-13T19:30:29.674Z,30.98
2022-11-13T19:33:16.061Z,29.65
2022-11-13T19:35:49.134Z,29.05
2022-11-13T19:38:36.077Z,29.42
2022-11-13T19:41:10.153Z,28.50
2022-11-13T19:43:57.045Z,27.80
2022-11-13T19:46:38.080Z,29.63
2022-11-13T19:49:25.062Z,32.25
2022-11-13T19:52:07.078Z,33.78
2022-11-13T19:55:01.073Z,34.15
2022-11-13T19:57:49.093Z,36.10
2022-11-13T20:00:23.269Z,34.53
2022-11-13T20:03:10.056Z,32.75
2022-11-13T20:05:47.158Z,30.38
2022-11-13T20:08:34.436Z,31.15
2022-11-13T20:11:22.109Z,30.38
2022-11-13T20:14:16.083Z,29.77
2022-11-13T20:17:10.090Z,28.08
2022-11-13T20:19:57.068Z,30.60
2022-11-13T20:22:38.226Z,30.17
2022-11-13T20:25:25.080Z,27.65
2022-11-13T20:27:58.154Z,29.23
2022-11-13T20:30:45.093Z,29.85
2022-11-13T20:33:22.422Z,27.75
2022-11-13T20:36:11.047Z,29.70
2022-11-13T20:38:52.107Z,31.17
2022-11-13T20:41:46.067Z,31.75
2022-11-13T20:44:40.101Z,33.90
2022-11-13T20:47:34.086Z,32.15
2022-11-13T20:50:21.106Z,32.13
2022-11-13T20:52:54.192Z,34.88
2022-11-13T20:55:41.117Z,36.28
2022-11-13T20:58:14.186Z,35.35
2022-11-13T21:01:08.181Z,35.38
2022-11-13T21:03:51.090Z,37.42
2022-11-13T21:06:45.112Z,35.38
2022-11-13T21:09:32.124Z,34.47
2022-11-13T21:12:05.176Z,35.35
2022-11-13T21:14:52.098Z,32.33
2022-11-13T21:17:32.115Z,33.22
2022-11-13T21:20:26.099Z,32.33
2022-11-13T21:23:13.119Z,33.38
2022-11-13T21:25:46.166Z,31.58
2022-11-13T21:28:33.974Z,32.63
2022-11-13T21:31:35.122Z,29.63
2022-11-13T21:34:22.095Z,28.60
2022-11-13T21:36:55.230Z,31.85
2022-11-13T21:39:42.129Z,30.17
2022-11-13T21:42:22.115Z,29.48
2022-11-13T21:45:16.109Z,31.00
2022-11-13T21:48:10.125Z,32.00
2022-11-13T21:50:57.113Z,30.08
2022-11-13T21:53:30.183Z,32.85
2022-11-13T21:56:17.159Z,31.67
2022-11-13T21:58:51.258Z,30.85
2022-11-13T22:01:39.167Z,30.02
2022-11-13T22:04:13.191Z,27.88
2022-11-13T22:07:00.184Z,27.02
2022-11-13T22:09:33.198Z,28.40
2022-11-13T22:12:20.123Z,27.02
2022-11-13T22:14:53.193Z,29.25
2022-11-13T22:17:40.108Z,27.90
2022-11-13T22:20:14.265Z,27.05
2022-11-13T22:23:01.121Z,29.98
2022-11-13T22:25:34.176Z,30.05
2022-11-13T22:28:21.120Z,30.40
2022-11-13T22:30:54.477Z,32.97
2022-11-13T22:33:47.800Z,30.83
2022-11-13T22:36:25.292Z,30.33
2022-11-13T22:39:13.116Z,31.30
2022-11-13T22:41:46.286Z,32.10
2022-11-13T22:44:54.324Z,31.20
2022-11-13T22:47:37.917Z,30.13
2022-11-13T22:50:32.134Z,29.92
2022-11-13T22:53:21.161Z,28.75
2022-11-13T22:55:54.210Z,28.80
2022-11-13T22:58:41.125Z,28.85
2022-11-13T23:01:19.298Z,26.63
2022-11-13T23:04:08.128Z,27.27
2022-11-13T23:06:43.342Z,26.88
2022-11-13T23:09:30.141Z,27.27
2022-11-13T23:12:10.145Z,26.33
2022-11-13T23:15:04.150Z,26.65
2022-11-13T23:17:53.146Z,24.80
2022-11-13T23:20:26.235Z,23.45
2022-11-13T23:23:13.133Z,25.60
2022-11-13T23:25:46.221Z,24.20
2022-11-13T23:28:34.138Z,23.15
2022-11-13T23:31:07.228Z,23.98
2022-11-13T23:33:54.165Z,23.35
2022-11-13T23:36:28.193Z,22.75
2022-11-13T23:39:15.162Z,22.83
2022-11-13T23:41:55.154Z,25.80
2022-11-13T23:44:49.137Z,26.50
2022-11-13T23:47:36.170Z,24.88
2022-11-13T23:50:09.274Z,23.85
2022-11-13T23:52:56.161Z,25.67
2022-11-13T23:55:29.226Z,24.58
2022-11-13T23:58:22.167Z,25.38
